sensor_id;sensor_type;location;lat;lon;timestamp;pressure;altitude;pressure_sealevel;temperature;humidity
48872;BME280;36154;51.674;7.824;2023-07-09T00:01:43;101009.59;;;25.78;43.37
48872;BME280;36154;51.674;7.824;2023-07-09T00:04:11;101017.50;;;25.77;43.43
48872;BME280;36154;51.674;7.824;2023-07-09T00:06:38;101014.88;;;25.77;43.18
48872;BME280;36154;51.674;7.824;2023-07-09T00:09:05;101025.38;;;25.75;43.41
48872;BME280;36154;51.674;7.824;2023-07-09T00:11:31;101023.69;;;25.74;43.14
48872;BME280;36154;51.674;7.824;2023-07-09T00:13:56;101025.53;;;25.72;43.51
48872;BME280;36154;51.674;7.824;2023-07-09T00:16:24;101021.19;;;25.71;43.53
48872;BME280;36154;51.674;7.824;2023-07-09T00:18:50;101030.09;;;25.67;43.22
48872;BME280;36154;51.674;7.824;2023-07-09T00:21:20;101032.56;;;25.70;43.42
48872;BME280;36154;51.674;7.824;2023-07-09T00:23:45;101036.94;;;25.70;43.33
48872;BME280;36154;51.674;7.824;2023-07-09T00:26:13;101032.72;;;25.67;43.41
48872;BME280;36154;51.674;7.824;2023-07-09T00:28:40;101035.25;;;25.69;43.09
48872;BME280;36154;51.674;7.824;2023-07-09T00:31:10;101030.09;;;25.67;43.36
48872;BME280;36154;51.674;7.824;2023-07-09T00:33:36;101029.31;;;25.65;43.60
48872;BME280;36154;51.674;7.824;2023-07-09T00:36:10;101033.78;;;25.63;43.20
48872;BME280;36154;51.674;7.824;2023-07-09T00:38:39;101032.09;;;25.60;43.33
48872;BME280;36154;51.674;7.824;2023-07-09T00:41:13;101022.63;;;25.58;43.40
48872;BME280;36154;51.674;7.824;2023-07-09T00:43:46;101027.84;;;25.58;43.79
48872;BME280;36154;51.674;7.824;2023-07-09T00:48:50;101029.69;;;25.56;43.56
48872;BME280;36154;51.674;7.824;2023-07-09T00:51:21;101028.84;;;25.55;43.57
48872;BME280;36154;51.674;7.824;2023-07-09T00:53:49;101021.09;;;25.54;43.77
48872;BME280;36154;51.674;7.824;2023-07-09T00:56:22;101027.19;;;25.53;43.50
48872;BME280;36154;51.674;7.824;2023-07-09T00:58:52;101028.13;;;25.52;43.81
48872;BME280;36154;51.674;7.824;2023-07-09T01:01:18;101018.59;;;25.51;43.48
48872;BME280;36154;51.674;7.824;2023-07-09T01:03:49;101013.50;;;25.47;43.89
48872;BME280;36154;51.674;7.824;2023-07-09T01:06:21;101020.50;;;25.47;43.61
48872;BME280;36154;51.674;7.824;2023-07-09T01:08:50;101014.56;;;25.43;44.13
48872;BME280;36154;51.674;7.824;2023-07-09T01:11:21;101007.66;;;25.42;44.01
48872;BME280;36154;51.674;7.824;2023-07-09T01:13:52;101012.09;;;25.40;44.18
48872;BME280;36154;51.674;7.824;2023-07-09T01:16:19;101013.81;;;25.41;44.23
48872;BME280;36154;51.674;7.824;2023-07-09T01:18:51;101019.09;;;25.40;44.23
48872;BME280;36154;51.674;7.824;2023-07-09T01:21:16;101008.84;;;25.35;44.08
48872;BME280;36154;51.674;7.824;2023-07-09T01:23:47;101018.38;;;25.36;44.07
48872;BME280;36154;51.674;7.824;2023-07-09T01:26:18;101021.88;;;25.35;44.31
48872;BME280;36154;51.674;7.824;2023-07-09T01:28:44;101020.25;;;25.33;44.20
48872;BME280;36154;51.674;7.824;2023-07-09T01:31:11;101030.78;;;25.31;44.59
48872;BME280;36154;51.674;7.824;2023-07-09T01:33:41;101027.34;;;25.29;44.54
48872;BME280;36154;51.674;7.824;2023-07-09T01:36:10;101024.88;;;25.26;44.55
48872;BME280;36154;51.674;7.824;2023-07-09T01:38:38;101035.41;;;25.24;44.64
48872;BME280;36154;51.674;7.824;2023-07-09T01:41:03;101036.31;;;25.23;44.46
48872;BME280;36154;51.674;7.824;2023-07-09T01:43:29;101026.75;;;25.22;45.11
48872;BME280;36154;51.674;7.824;2023-07-09T01:45:56;101029.44;;;25.21;44.55
48872;BME280;36154;51.674;7.824;2023-07-09T01:48:24;101027.88;;;25.17;44.94
48872;BME280;36154;51.674;7.824;2023-07-09T01:50:50;101020.25;;;25.12;44.64
48872;BME280;36154;51.674;7.824;2023-07-09T01:53:17;101023.84;;;25.09;44.85
48872;BME280;36154;51.674;7.824;2023-07-09T01:55:44;101019.53;;;25.08;45.00
48872;BME280;36154;51.674;7.824;2023-07-09T01:58:09;101022.97;;;25.09;45.18
48872;BME280;36154;51.674;7.824;2023-07-09T02:00:36;101019.53;;;25.08;44.94
48872;BME280;36154;51.674;7.824;2023-07-09T02:03:03;101021.31;;;25.08;45.19
48872;BME280;36154;51.674;7.824;2023-07-09T02:05:31;101030.94;;;25.06;44.98
48872;BME280;36154;51.674;7.824;2023-07-09T02:07:57;101028.41;;;25.04;45.21
48872;BME280;36154;51.674;7.824;2023-07-09T02:10:22;101023.19;;;25.04;44.80
48872;BME280;36154;51.674;7.824;2023-07-09T02:12:48;101024.16;;;25.02;44.96
48872;BME280;36154;51.674;7.824;2023-07-09T02:15:14;101019.06;;;24.99;45.12
48872;BME280;36154;51.674;7.824;2023-07-09T02:17:39;101018.28;;;24.97;45.00
48872;BME280;36154;51.674;7.824;2023-07-09T02:20:05;101010.41;;;24.98;45.07
48872;BME280;36154;51.674;7.824;2023-07-09T02:22:32;101020.06;;;24.96;45.09
48872;BME280;36154;51.674;7.824;2023-07-09T02:24:58;101019.19;;;24.96;45.08
48872;BME280;36154;51.674;7.824;2023-07-09T02:27:23;101018.34;;;24.95;45.41
48872;BME280;36154;51.674;7.824;2023-07-09T02:29:48;101022.75;;;24.93;45.29
48872;BME280;36154;51.674;7.824;2023-07-09T02:32:19;101021.81;;;24.94;45.44
48872;BME280;36154;51.674;7.824;2023-07-09T02:34:47;101021.06;;;24.92;45.09
48872;BME280;36154;51.674;7.824;2023-07-09T02:37:18;101026.38;;;24.89;45.47
48872;BME280;36154;51.674;7.824;2023-07-09T02:39:43;101027.44;;;24.85;45.22
48872;BME280;36154;51.674;7.824;2023-07-09T02:42:10;101021.50;;;24.81;45.70
48872;BME280;36154;51.674;7.824;2023-07-09T02:44:36;101023.25;;;24.81;45.53
48872;BME280;36154;51.674;7.824;2023-07-09T02:47:01;101025.84;;;24.81;45.52
48872;BME280;36154;51.674;7.824;2023-07-09T02:49:27;101031.06;;;24.81;45.24
48872;BME280;36154;51.674;7.824;2023-07-09T02:51:52;101030.22;;;24.80;45.35
48872;BME280;36154;51.674;7.824;2023-07-09T02:54:18;101036.28;;;24.81;45.52
48872;BME280;36154;51.674;7.824;2023-07-09T02:56:43;101045.03;;;24.80;45.38
48872;BME280;36154;51.674;7.824;2023-07-09T02:59:08;101035.66;;;24.74;45.75
48872;BME280;36154;51.674;7.824;2023-07-09T03:01:34;101039.22;;;24.73;45.65
48872;BME280;36154;51.674;7.824;2023-07-09T03:04:01;101047.91;;;24.72;45.98
48872;BME280;36154;51.674;7.824;2023-07-09T03:06:30;101043.69;;;24.69;45.94
48872;BME280;36154;51.674;7.824;2023-07-09T03:08:58;101048.91;;;24.69;46.11
48872;BME280;36154;51.674;7.824;2023-07-09T03:11:24;101052.41;;;24.68;45.72
48872;BME280;36154;51.674;7.824;2023-07-09T03:13:49;101058.41;;;24.70;45.96
48872;BME280;36154;51.674;7.824;2023-07-09T03:16:15;101058.41;;;24.70;45.95
48872;BME280;36154;51.674;7.824;2023-07-09T03:18:40;101062.00;;;24.68;45.79
48872;BME280;36154;51.674;7.824;2023-07-09T03:21:06;101063.81;;;24.66;45.87
48872;BME280;36154;51.674;7.824;2023-07-09T03:23:31;101057.75;;;24.65;45.67
48872;BME280;36154;51.674;7.824;2023-07-09T03:25:57;101065.56;;;24.65;45.67
48872;BME280;36154;51.674;7.824;2023-07-09T03:28:24;101065.63;;;24.64;45.69
48872;BME280;36154;51.674;7.824;2023-07-09T03:30:53;101063.06;;;24.62;46.09
48872;BME280;36154;51.674;7.824;2023-07-09T03:33:18;101056.25;;;24.60;45.89
48872;BME280;36154;51.674;7.824;2023-07-09T03:35:44;101064.16;;;24.57;46.22
48872;BME280;36154;51.674;7.824;2023-07-09T03:38:10;101061.63;;;24.55;45.77
48872;BME280;36154;51.674;7.824;2023-07-09T03:40:36;101065.16;;;24.54;46.09
48872;BME280;36154;51.674;7.824;2023-07-09T03:43:03;101058.22;;;24.53;46.05
48872;BME280;36154;51.674;7.824;2023-07-09T03:45:30;101056.53;;;24.52;46.13
48872;BME280;36154;51.674;7.824;2023-07-09T03:47:55;101060.06;;;24.51;45.93
48872;BME280;36154;51.674;7.824;2023-07-09T03:50:21;101059.13;;;24.52;46.24
48872;BME280;36154;51.674;7.824;2023-07-09T03:52:47;101063.56;;;24.50;46.22
48872;BME280;36154;51.674;7.824;2023-07-09T03:55:12;101060.94;;;24.50;46.34
48872;BME280;36154;51.674;7.824;2023-07-09T03:57:38;101056.63;;;24.49;46.24
48872;BME280;36154;51.674;7.824;2023-07-09T04:00:04;101059.34;;;24.47;46.63
48872;BME280;36154;51.674;7.824;2023-07-09T04:02:30;101055.06;;;24.45;46.65
48872;BME280;36154;51.674;7.824;2023-07-09T04:04:55;101062.00;;;24.46;46.44
48872;BME280;36154;51.674;7.824;2023-07-09T04:07:20;101060.28;;;24.45;46.59
48872;BME280;36154;51.674;7.824;2023-07-09T04:09:46;101063.78;;;24.44;46.48
48872;BME280;36154;51.674;7.824;2023-07-09T04:12:11;101061.22;;;24.42;46.55
48872;BME280;36154;51.674;7.824;2023-07-09T04:14:36;101069.00;;;24.44;46.84
48872;BME280;36154;51.674;7.824;2023-07-09T04:17:04;101063.78;;;24.44;46.67
48872;BME280;36154;51.674;7.824;2023-07-09T04:19:29;101068.09;;;24.45;46.43
48872;BME280;36154;51.674;7.824;2023-07-09T04:21:55;101058.56;;;24.44;46.76
48872;BME280;36154;51.674;7.824;2023-07-09T04:24:20;101060.28;;;24.45;46.76
48872;BME280;36154;51.674;7.824;2023-07-09T04:26:46;101059.44;;;24.44;46.70
48872;BME280;36154;51.674;7.824;2023-07-09T04:29:12;101063.78;;;24.44;46.89
48872;BME280;36154;51.674;7.824;2023-07-09T04:31:38;101060.34;;;24.43;46.54
48872;BME280;36154;51.674;7.824;2023-07-09T04:34:04;101063.78;;;24.44;46.95
48872;BME280;36154;51.674;7.824;2023-07-09T04:36:29;101053.38;;;24.44;46.82
48872;BME280;36154;51.674;7.824;2023-07-09T04:38:56;101067.31;;;24.43;46.71
48872;BME280;36154;51.674;7.824;2023-07-09T04:41:21;101063.78;;;24.44;47.02
48872;BME280;36154;51.674;7.824;2023-07-09T04:43:47;101061.13;;;24.45;46.75
48872;BME280;36154;51.674;7.824;2023-07-09T04:46:12;101062.84;;;24.46;47.09
48872;BME280;36154;51.674;7.824;2023-07-09T04:48:37;101059.44;;;24.44;46.83
48872;BME280;36154;51.674;7.824;2023-07-09T04:51:03;101060.22;;;24.46;47.04
48872;BME280;36154;51.674;7.824;2023-07-09T04:53:29;101071.44;;;24.48;47.06
48872;BME280;36154;51.674;7.824;2023-07-09T04:55:54;101079.19;;;24.50;47.00
48872;BME280;36154;51.674;7.824;2023-07-09T04:58:20;101074.81;;;24.50;47.05
48872;BME280;36154;51.674;7.824;2023-07-09T05:00:45;101079.19;;;24.50;47.12
48872;BME280;36154;51.674;7.824;2023-07-09T05:03:11;101082.69;;;24.49;47.08
48872;BME280;36154;51.674;7.824;2023-07-09T05:05:48;101075.81;;;24.48;47.26
48872;BME280;36154;51.674;7.824;2023-07-09T05:08:14;101083.63;;;24.48;47.14
48872;BME280;36154;51.674;7.824;2023-07-09T05:10:45;101078.41;;;24.48;47.60
48872;BME280;36154;51.674;7.824;2023-07-09T05:13:11;101079.31;;;24.47;47.18
48872;BME280;36154;51.674;7.824;2023-07-09T05:15:40;101078.53;;;24.45;47.74
48872;BME280;36154;51.674;7.824;2023-07-09T05:18:06;101082.84;;;24.46;47.39
48872;BME280;36154;51.674;7.824;2023-07-09T05:20:33;101082.84;;;24.46;47.82
48872;BME280;36154;51.674;7.824;2023-07-09T05:22:58;101081.91;;;24.47;47.74
48872;BME280;36154;51.674;7.824;2023-07-09T05:25:23;101077.56;;;24.47;47.68
48872;BME280;36154;51.674;7.824;2023-07-09T05:27:49;101075.81;;;24.48;47.86
48872;BME280;36154;51.674;7.824;2023-07-09T05:30:16;101075.75;;;24.49;47.77
48872;BME280;36154;51.674;7.824;2023-07-09T05:32:41;101079.06;;;24.53;47.82
48872;BME280;36154;51.674;7.824;2023-07-09T05:35:07;101076.41;;;24.54;48.04
48872;BME280;36154;51.674;7.824;2023-07-09T05:37:33;101072.09;;;24.53;48.21
48872;BME280;36154;51.674;7.824;2023-07-09T05:39:58;101072.88;;;24.55;48.30
48872;BME280;36154;51.674;7.824;2023-07-09T05:42:23;101072.03;;;24.55;48.31
48872;BME280;36154;51.674;7.824;2023-07-09T05:44:48;101073.75;;;24.56;48.16
48872;BME280;36154;51.674;7.824;2023-07-09T05:47:14;101089.38;;;24.56;47.99
48872;BME280;36154;51.674;7.824;2023-07-09T05:49:39;101074.66;;;24.55;48.41
48872;BME280;36154;51.674;7.824;2023-07-09T05:52:05;101078.09;;;24.55;48.26
48872;BME280;36154;51.674;7.824;2023-07-09T05:54:31;101079.75;;;24.58;48.51
48872;BME280;36154;51.674;7.824;2023-07-09T05:56:56;101087.56;;;24.58;48.32
48872;BME280;36154;51.674;7.824;2023-07-09T05:59:22;101088.28;;;24.62;48.21
48872;BME280;36154;51.674;7.824;2023-07-09T06:01:47;101086.47;;;24.64;48.71
48872;BME280;36154;51.674;7.824;2023-07-09T06:04:12;101084.78;;;24.63;48.43
48872;BME280;36154;51.674;7.824;2023-07-09T06:06:39;101086.34;;;24.67;48.71
48872;BME280;36154;51.674;7.824;2023-07-09T06:09:06;101088.00;;;24.69;48.73
48872;BME280;36154;51.674;7.824;2023-07-09T06:11:31;101087.88;;;24.72;48.70
48872;BME280;36154;51.674;7.824;2023-07-09T06:13:57;101100.75;;;24.76;48.16
48872;BME280;36154;51.674;7.824;2023-07-09T06:16:23;101095.44;;;24.79;48.19
48872;BME280;36154;51.674;7.824;2023-07-09T06:18:49;101096.22;;;24.81;48.24
48872;BME280;36154;51.674;7.824;2023-07-09T06:21:14;101096.03;;;24.85;48.36
48872;BME280;36154;51.674;7.824;2023-07-09T06:23:39;101092.47;;;24.88;47.88
48872;BME280;36154;51.674;7.824;2023-07-09T06:26:05;101089.75;;;24.91;47.88
48872;BME280;36154;51.674;7.824;2023-07-09T06:28:30;101086.22;;;24.92;47.77
48872;BME280;36154;51.674;7.824;2023-07-09T06:30:55;101093.91;;;24.97;47.84
48872;BME280;36154;51.674;7.824;2023-07-09T06:33:24;101087.69;;;24.99;47.98
48872;BME280;36154;51.674;7.824;2023-07-09T06:35:53;101086.72;;;25.02;47.88
48872;BME280;36154;51.674;7.824;2023-07-09T06:38:19;101081.41;;;25.05;48.06
48872;BME280;36154;51.674;7.824;2023-07-09T06:40:44;101082.13;;;25.08;47.75
48872;BME280;36154;51.674;7.824;2023-07-09T06:43:10;101090.72;;;25.10;48.21
48872;BME280;36154;51.674;7.824;2023-07-09T06:45:36;101081.88;;;25.15;47.87
48872;BME280;36154;51.674;7.824;2023-07-09T06:48:01;101093.97;;;25.16;48.25
48872;BME280;36154;51.674;7.824;2023-07-09T06:50:27;101086.03;;;25.19;47.99
48872;BME280;36154;51.674;7.824;2023-07-09T06:52:52;101092.84;;;25.23;48.35
48872;BME280;36154;51.674;7.824;2023-07-09T06:55:18;101086.75;;;25.22;48.26
48872;BME280;36154;51.674;7.824;2023-07-09T06:57:43;101094.41;;;25.27;48.05
48872;BME280;36154;51.674;7.824;2023-07-09T07:00:09;101089.94;;;25.29;47.97
48872;BME280;36154;51.674;7.824;2023-07-09T07:02:34;101095.03;;;25.32;48.19
48872;BME280;36154;51.674;7.824;2023-07-09T07:05:00;101096.63;;;25.36;48.14
48872;BME280;36154;51.674;7.824;2023-07-09T07:07:26;101099.91;;;25.41;48.55
48872;BME280;36154;51.674;7.824;2023-07-09T07:09:51;101091.91;;;25.44;48.37
48872;BME280;36154;51.674;7.824;2023-07-09T07:12:43;101095.25;;;25.48;48.56
48872;BME280;36154;51.674;7.824;2023-07-09T07:15:09;101093.38;;;25.52;48.48
48872;BME280;36154;51.674;7.824;2023-07-09T07:17:35;101094.91;;;25.56;48.25
48872;BME280;36154;51.674;7.824;2023-07-09T07:20:01;101096.56;;;25.58;48.17
48872;BME280;36154;51.674;7.824;2023-07-09T07:22:26;101100.91;;;25.58;48.14
48872;BME280;36154;51.674;7.824;2023-07-09T07:24:51;101092.88;;;25.62;48.26
48872;BME280;36154;51.674;7.824;2023-07-09T07:27:16;101088.41;;;25.66;48.39
48872;BME280;36154;51.674;7.824;2023-07-09T07:29:42;101091.84;;;25.68;48.19
48872;BME280;36154;51.674;7.824;2023-07-09T07:32:07;101096.88;;;25.71;47.98
48872;BME280;36154;51.674;7.824;2023-07-09T07:34:33;101089.88;;;25.73;48.19
48872;BME280;36154;51.674;7.824;2023-07-09T07:36:59;101082.81;;;25.75;48.03
48872;BME280;36154;51.674;7.824;2023-07-09T07:39:24;101086.13;;;25.79;48.02
48872;BME280;36154;51.674;7.824;2023-07-09T07:41:49;101084.28;;;25.81;47.75
48872;BME280;36154;51.674;7.824;2023-07-09T07:44:16;101086.78;;;25.84;47.95
48872;BME280;36154;51.674;7.824;2023-07-09T07:46:41;101091.94;;;25.86;47.34
48872;BME280;36154;51.674;7.824;2023-07-09T07:49:06;101085.81;;;25.87;47.80
48872;BME280;36154;51.674;7.824;2023-07-09T07:51:32;101090.84;;;25.90;47.49
48872;BME280;36154;51.674;7.824;2023-07-09T07:53:58;101085.56;;;25.91;47.57
48872;BME280;36154;51.674;7.824;2023-07-09T07:56:23;101087.22;;;25.94;47.67
48872;BME280;36154;51.674;7.824;2023-07-09T07:58:51;101094.16;;;25.95;47.63
48872;BME280;36154;51.674;7.824;2023-07-09T08:01:16;101088.06;;;25.94;47.67
48872;BME280;36154;51.674;7.824;2023-07-09T08:03:44;101092.31;;;25.97;47.73
48872;BME280;36154;51.674;7.824;2023-07-09T08:06:09;101087.09;;;25.97;47.57
48872;BME280;36154;51.674;7.824;2023-07-09T08:08:34;101090.59;;;25.96;47.58
48872;BME280;36154;51.674;7.824;2023-07-09T08:11:02;101082.84;;;25.94;47.30
48872;BME280;36154;51.674;7.824;2023-07-09T08:13:31;101085.38;;;25.96;47.28
48872;BME280;36154;51.674;7.824;2023-07-09T08:15:58;101079.31;;;25.95;47.43
48872;BME280;36154;51.674;7.824;2023-07-09T08:18:23;101083.69;;;25.95;47.44
48872;BME280;36154;51.674;7.824;2023-07-09T08:20:48;101088.00;;;25.96;47.32
48872;BME280;36154;51.674;7.824;2023-07-09T08:23:13;101086.31;;;25.95;47.35
48872;BME280;36154;51.674;7.824;2023-07-09T08:25:39;101086.31;;;25.95;47.22
48872;BME280;36154;51.674;7.824;2023-07-09T08:28:04;101076.78;;;25.94;46.95
48872;BME280;36154;51.674;7.824;2023-07-09T08:30:30;101073.25;;;25.95;46.90
48872;BME280;36154;51.674;7.824;2023-07-09T08:32:55;101071.53;;;25.94;46.94
48872;BME280;36154;51.674;7.824;2023-07-09T08:35:22;101075.94;;;25.93;46.96
48872;BME280;36154;51.674;7.824;2023-07-09T08:37:47;101071.53;;;25.94;47.21
48872;BME280;36154;51.674;7.824;2023-07-09T08:40:15;101066.31;;;25.94;46.85
48872;BME280;36154;51.674;7.824;2023-07-09T08:42:43;101070.72;;;25.93;46.93
48872;BME280;36154;51.674;7.824;2023-07-09T08:45:40;101061.25;;;25.91;46.90
48872;BME280;36154;51.674;7.824;2023-07-09T08:50:51;101070.78;;;25.92;46.69
48872;BME280;36154;51.674;7.824;2023-07-09T08:53:28;101075.06;;;25.93;46.75
48872;BME280;36154;51.674;7.824;2023-07-09T08:55:56;101069.84;;;25.93;46.52
48872;BME280;36154;51.674;7.824;2023-07-09T08:58:25;101068.16;;;25.92;46.69
48872;BME280;36154;51.674;7.824;2023-07-09T09:00:55;101064.63;;;25.93;46.80
48872;BME280;36154;51.674;7.824;2023-07-09T09:03:43;101059.41;;;25.93;46.68
48872;BME280;36154;51.674;7.824;2023-07-09T09:11:20;101055.88;;;25.94;46.39
48872;BME280;36154;51.674;7.824;2023-07-09T09:13:49;101055.88;;;25.94;46.51
48872;BME280;36154;51.674;7.824;2023-07-09T09:16:28;101057.66;;;25.93;46.32
48872;BME280;36154;51.674;7.824;2023-07-09T09:18:59;101051.50;;;25.94;46.60
48872;BME280;36154;51.674;7.824;2023-07-09T09:21:31;101056.72;;;25.94;46.28
48872;BME280;36154;51.674;7.824;2023-07-09T09:23:58;101052.44;;;25.93;46.21
48872;BME280;36154;51.674;7.824;2023-07-09T09:26:31;101054.97;;;25.95;46.29
48872;BME280;36154;51.674;7.824;2023-07-09T09:28:56;101062.81;;;25.95;46.39
48872;BME280;36154;51.674;7.824;2023-07-09T09:31:24;101054.97;;;25.95;46.42
48872;BME280;36154;51.674;7.824;2023-07-09T09:33:51;101061.94;;;25.94;46.23
48872;BME280;36154;51.674;7.824;2023-07-09T09:36:20;101057.59;;;25.95;46.18
48872;BME280;36154;51.674;7.824;2023-07-09T09:38:45;101059.25;;;25.96;46.08
48872;BME280;36154;51.674;7.824;2023-07-09T09:41:23;101057.59;;;25.95;46.35
48872;BME280;36154;51.674;7.824;2023-07-09T09:43:51;101057.59;;;25.95;46.14
48872;BME280;36154;51.674;7.824;2023-07-09T09:46:26;101060.19;;;25.95;46.15
48872;BME280;36154;51.674;7.824;2023-07-09T09:48:58;101055.88;;;25.94;46.16
48872;BME280;36154;51.674;7.824;2023-07-09T09:51:24;101047.16;;;25.95;46.00
48872;BME280;36154;51.674;7.824;2023-07-09T09:53:52;101053.22;;;25.95;46.08
48872;BME280;36154;51.674;7.824;2023-07-09T09:56:27;101042.75;;;25.95;46.01
48872;BME280;36154;51.674;7.824;2023-07-09T09:58:54;101047.06;;;25.96;45.95
48872;BME280;36154;51.674;7.824;2023-07-09T10:01:26;101055.75;;;25.97;46.09
48872;BME280;36154;51.674;7.824;2023-07-09T10:03:56;101045.31;;;25.97;46.17
48872;BME280;36154;51.674;7.824;2023-07-09T10:06:45;101044.44;;;25.96;46.19
48872;BME280;36154;51.674;7.824;2023-07-09T10:09:41;101040.91;;;25.97;45.73
48872;BME280;36154;51.674;7.824;2023-07-09T10:12:54;101040.91;;;25.97;46.12
48872;BME280;36154;51.674;7.824;2023-07-09T10:15:42;101035.00;;;25.94;45.92
48872;BME280;36154;51.674;7.824;2023-07-09T10:21:10;101045.31;;;25.97;45.70
48872;BME280;36154;51.674;7.824;2023-07-09T10:23:47;101043.59;;;25.96;46.28
48872;BME280;36154;51.674;7.824;2023-07-09T10:26:24;101040.09;;;25.97;45.96
48872;BME280;36154;51.674;7.824;2023-07-09T10:31:39;101040.09;;;25.97;45.70
48872;BME280;36154;51.674;7.824;2023-07-09T10:37:33;101034.78;;;25.98;45.89
48872;BME280;36154;51.674;7.824;2023-07-09T10:39:53;101036.53;;;25.98;45.83
48872;BME280;36154;51.674;7.824;2023-07-09T10:42:25;101041.75;;;25.98;45.70
48872;BME280;36154;51.674;7.824;2023-07-09T10:44:57;101038.25;;;25.99;45.90
48872;BME280;36154;51.674;7.824;2023-07-09T10:47:32;101033.03;;;25.99;45.72
48872;BME280;36154;51.674;7.824;2023-07-09T10:49:59;101026.03;;;25.99;45.86
48872;BME280;36154;51.674;7.824;2023-07-09T10:52:33;101030.34;;;26.00;45.58
48872;BME280;36154;51.674;7.824;2023-07-09T10:55:09;101019.97;;;25.99;45.58
48872;BME280;36154;51.674;7.824;2023-07-09T10:57:45;101022.50;;;26.00;45.62
48872;BME280;36154;51.674;7.824;2023-07-09T11:00:15;101013.84;;;26.00;45.56
48872;BME280;36154;51.674;7.824;2023-07-09T11:02:42;101015.50;;;26.01;45.89
48872;BME280;36154;51.674;7.824;2023-07-09T11:05:08;101014.59;;;26.02;45.64
48872;BME280;36154;51.674;7.824;2023-07-09T11:07:43;101013.03;;;25.98;45.49
48872;BME280;36154;51.674;7.824;2023-07-09T11:10:34;101019.91;;;26.00;45.51
48872;BME280;36154;51.674;7.824;2023-07-09T11:15:36;101024.22;;;26.01;45.46
48872;BME280;36154;51.674;7.824;2023-07-09T11:18:05;101020.75;;;26.01;45.55
48872;BME280;36154;51.674;7.824;2023-07-09T11:20:34;101023.28;;;26.02;45.73
48872;BME280;36154;51.674;7.824;2023-07-09T11:23:21;101017.22;;;26.02;45.11
48872;BME280;36154;51.674;7.824;2023-07-09T11:25:59;101017.22;;;26.02;45.53
48872;BME280;36154;51.674;7.824;2023-07-09T11:28:37;101018.91;;;26.03;45.54
48872;BME280;36154;51.674;7.824;2023-07-09T11:31:25;101007.59;;;26.02;45.45
48872;BME280;36154;51.674;7.824;2023-07-09T11:34:07;101004.16;;;26.02;45.46
48872;BME280;36154;51.674;7.824;2023-07-09T11:36:34;101005.84;;;26.03;45.45
48872;BME280;36154;51.674;7.824;2023-07-09T11:39:00;101009.31;;;26.03;45.67
48872;BME280;36154;51.674;7.824;2023-07-09T11:41:39;101011.00;;;26.05;45.70
48872;BME280;36154;51.674;7.824;2023-07-09T11:46:36;100984.81;;;26.06;45.68
48872;BME280;36154;51.674;7.824;2023-07-09T11:49:07;100978.75;;;26.06;45.58
48872;BME280;36154;51.674;7.824;2023-07-09T11:51:51;100984.03;;;26.04;45.25
48872;BME280;36154;51.674;7.824;2023-07-09T11:54:18;100992.63;;;26.06;45.48
48872;BME280;36154;51.674;7.824;2023-07-09T11:56:54;100979.59;;;26.06;45.68
48872;BME280;36154;51.674;7.824;2023-07-09T11:59:19;100978.69;;;26.07;45.36
48872;BME280;36154;51.674;7.824;2023-07-09T12:01:46;100973.47;;;26.07;45.46
48872;BME280;36154;51.674;7.824;2023-07-09T12:04:16;100970.78;;;26.09;45.32
48872;BME280;36154;51.674;7.824;2023-07-09T12:06:42;100975.13;;;26.08;45.60
48872;BME280;36154;51.674;7.824;2023-07-09T12:09:15;100969.91;;;26.08;45.41
48872;BME280;36154;51.674;7.824;2023-07-09T12:11:44;100976.84;;;26.09;45.44
48872;BME280;36154;51.674;7.824;2023-07-09T12:14:13;100969.91;;;26.08;45.60
48872;BME280;36154;51.674;7.824;2023-07-09T12:16:45;100968.09;;;26.10;45.20
48872;BME280;36154;51.674;7.824;2023-07-09T12:19:13;100949.81;;;26.10;45.49
48872;BME280;36154;51.674;7.824;2023-07-09T12:21:42;100937.66;;;26.09;45.32
48872;BME280;36154;51.674;7.824;2023-07-09T12:24:27;100932.38;;;26.11;45.49
48872;BME280;36154;51.674;7.824;2023-07-09T12:26:58;100928.94;;;26.10;45.45
48872;BME280;36154;51.674;7.824;2023-07-09T12:29:28;100927.97;;;26.11;45.22
48872;BME280;36154;51.674;7.824;2023-07-09T12:31:59;100922.75;;;26.11;45.30
48872;BME280;36154;51.674;7.824;2023-07-09T12:34:30;100917.53;;;26.11;45.37
48872;BME280;36154;51.674;7.824;2023-07-09T12:36:55;100927.97;;;26.11;45.06
48872;BME280;36154;51.674;7.824;2023-07-09T12:39:27;100924.47;;;26.12;45.23
48872;BME280;36154;51.674;7.824;2023-07-09T12:41:56;100914.84;;;26.13;45.36
48872;BME280;36154;51.674;7.824;2023-07-09T12:44:24;100919.25;;;26.12;45.08
48872;BME280;36154;51.674;7.824;2023-07-09T12:46:53;100915.72;;;26.13;45.28
48872;BME280;36154;51.674;7.824;2023-07-09T12:49:29;100914.84;;;26.13;45.18
48872;BME280;36154;51.674;7.824;2023-07-09T12:51:56;100909.56;;;26.14;45.19
48872;BME280;36154;51.674;7.824;2023-07-09T12:54:22;100906.09;;;26.14;45.25
48872;BME280;36154;51.674;7.824;2023-07-09T12:56:52;100906.09;;;26.14;45.01
48872;BME280;36154;51.674;7.824;2023-07-09T12:59:20;100906.94;;;26.14;45.41
48872;BME280;36154;51.674;7.824;2023-07-09T13:02:05;100911.25;;;26.15;45.03
48872;BME280;36154;51.674;7.824;2023-07-09T13:04:37;100904.34;;;26.14;45.03
48872;BME280;36154;51.674;7.824;2023-07-09T13:07:03;100896.50;;;26.14;45.06
48872;BME280;36154;51.674;7.824;2023-07-09T13:09:29;100901.72;;;26.14;45.08
48872;BME280;36154;51.674;7.824;2023-07-09T13:11:56;100895.59;;;26.15;45.40
48872;BME280;36154;51.674;7.824;2023-07-09T13:14:25;100892.03;;;26.16;45.06
48872;BME280;36154;51.674;7.824;2023-07-09T13:16:50;100889.44;;;26.16;45.11
48872;BME280;36154;51.674;7.824;2023-07-09T13:19:17;100892.03;;;26.16;44.99
48872;BME280;36154;51.674;7.824;2023-07-09T13:21:43;100884.22;;;26.16;45.23